Elmore, Indiana
Current Conditions -  °F | °C
As of 3:15 PM on Sunday 23 Nov 2014 (Local Time) from KDCY Reporting Station
Moderate Rain Moderate Rain  
Wind Chill: 54°   Ceiling: 800
Heat Index: 54°   Visibility: 5mi
Dew Point: 54°   Wind: 8mph
Humidity: 100%   Direction: 140°SE
Pressure: 29.45"   Gusts: NA
Location:  38.8142°N, 87.0735°W
Report Text: KDCY 232115Z AUTO 14007KT 5SM RA OVC008 12/12 A2945 RMK AO2 P0003 T01220122
Loading
Personal Weather Stations






























Interactive Weather Map New forecast layout! Learn more

10-Day Weather Forecast

Advertisements
Track Severe Weather on mobile